Time;durP1;ratioP1;P1;durP2;ratioP2;P2;SDS_P1;SDS_P2;PMS_P1;PMS_P2;Temp;Humidity;BMP_temperature;BMP_pressure;BME280_temperature;BME280_humidity;BME280_pressure;Samples;Min_cycle;Max_cycle;Signal;HPM_P1;HPM_P2
2023/01/01 00:01:22;;;;;;;51.37;36.13;;;;;;;11.61;100.00;97034.56;4972085;28;20192;-71
2023/01/01 00:03:55;;;;;;;42.40;33.03;;;;;;;11.66;100.00;97039.94;4972275;28;20193;-71
2023/01/01 00:06:21;;;;;;;37.27;28.40;;;;;;;11.67;100.00;97025.78;4973636;28;20203;-71
2023/01/01 00:08:47;;;;;;;34.43;28.17;;;;;;;11.72;100.00;97027.72;4976878;28;20270;-71
2023/01/01 00:11:13;;;;;;;24.67;20.57;;;;;;;11.76;100.00;97030.75;4976464;28;20185;-71
2023/01/01 00:13:40;;;;;;;25.37;20.70;;;;;;;11.78;100.00;97037.34;4976209;28;20690;-71
2023/01/01 00:16:11;;;;;;;25.73;19.67;;;;;;;11.86;99.67;97046.72;4976622;28;20534;-71
2023/01/01 00:18:37;;;;;;;25.00;22.50;;;;;;;11.89;99.39;97051.50;4976442;28;20263;-71
2023/01/01 00:21:09;;;;;;;26.03;23.57;;;;;;;11.91;99.11;97045.00;4959109;28;20268;-71
2023/01/01 00:23:34;;;;;;;30.27;27.53;;;;;;;11.96;98.74;97047.75;4976600;28;20576;-71
2023/01/01 00:26:00;;;;;;;35.50;32.70;;;;;;;12.01;98.30;97044.44;4974250;28;20219;-71
2023/01/01 00:28:26;;;;;;;52.47;48.43;;;;;;;12.01;98.07;97039.19;4976526;28;20651;-71
2023/01/01 00:30:51;;;;;;;37.93;35.03;;;;;;;11.98;98.53;97034.41;4976120;28;20211;-71
2023/01/01 00:33:17;;;;;;;34.93;32.27;;;;;;;11.97;98.48;97030.97;4976108;28;20289;-71
2023/01/01 00:35:42;;;;;;;33.03;30.63;;;;;;;12.03;97.84;97043.19;4976297;28;20191;-71
2023/01/01 00:38:08;;;;;;;28.90;26.80;;;;;;;12.03;97.72;97035.31;4958490;28;20501;-71
2023/01/01 00:40:33;;;;;;;28.30;25.93;;;;;;;12.01;97.86;97037.34;4974771;28;20189;-71
2023/01/01 00:42:58;;;;;;;34.20;31.57;;;;;;;12.00;97.87;97038.38;4976216;28;20280;-70
2023/01/01 00:45:24;;;;;;;37.73;34.90;;;;;;;12.02;98.13;97033.72;4976124;28;20219;-71
2023/01/01 00:47:51;;;;;;;37.57;34.77;;;;;;;11.95;97.91;97035.63;4976005;28;20189;-71
2023/01/01 00:50:17;;;;;;;35.13;32.40;;;;;;;11.90;98.50;97029.47;4976033;28;20272;-71
2023/01/01 00:52:42;;;;;;;40.97;38.23;;;;;;;11.86;98.40;97026.50;4975446;28;20181;-71
2023/01/01 00:55:08;;;;;;;36.77;34.07;;;;;;;11.89;98.15;97031.28;4957953;28;20270;-71
2023/01/01 00:57:34;;;;;;;38.33;35.83;;;;;;;11.91;98.18;97033.72;4975793;28;20272;-71
2023/01/01 00:59:59;;;;;;;31.40;29.10;;;;;;;11.93;98.21;97023.75;4975758;28;20185;-71
2023/01/01 01:02:24;;;;;;;29.23;27.10;;;;;;;11.93;98.01;97035.06;4974342;28;20560;-71
2023/01/01 01:04:49;;;;;;;31.57;29.27;;;;;;;11.93;97.89;97021.94;4975226;28;20668;-71
2023/01/01 01:07:15;;;;;;;30.80;28.60;;;;;;;11.91;97.88;97017.94;4975398;28;20200;-72
2023/01/01 01:09:40;;;;;;;25.17;23.27;;;;;;;11.94;97.76;97020.09;4975503;28;20750;-71
2023/01/01 01:12:06;;;;;;;22.93;21.23;;;;;;;11.91;98.01;97017.94;4959844;28;20192;-71
2023/01/01 01:14:31;;;;;;;22.33;20.47;;;;;;;11.87;98.04;97014.19;4975707;28;20216;-71
2023/01/01 01:16:56;;;;;;;20.57;18.87;;;;;;;11.82;98.16;97020.09;4975184;28;20642;-71
2023/01/01 01:19:24;;;;;;;19.07;17.47;;;;;;;11.83;98.40;97015.66;4975510;28;20220;-71
2023/01/01 01:21:50;;;;;;;20.67;18.87;;;;;;;11.80;99.04;97008.25;4958004;28;20185;-71
2023/01/01 01:24:16;;;;;;;18.30;16.70;;;;;;;11.83;98.42;97013.81;4974824;28;20188;-71
2023/01/01 01:26:41;;;;;;;17.87;16.17;;;;;;;11.79;98.35;97020.56;4973322;28;20223;-71
2023/01/01 01:29:07;;;;;;;17.17;15.77;;;;;;;11.83;98.58;97023.53;4975559;28;20301;-71
2023/01/01 01:31:33;;;;;;;17.73;16.00;;;;;;;11.84;98.18;97028.56;4975045;28;20231;-71
2023/01/01 01:33:59;;;;;;;17.40;15.70;;;;;;;11.84;98.09;97031.19;4975046;28;20184;-70
2023/01/01 01:36:25;;;;;;;14.40;13.20;;;;;;;11.81;98.69;97030.84;4974380;28;20189;-71
2023/01/01 01:38:50;;;;;;;17.13;15.47;;;;;;;11.80;98.41;97029.25;4974645;28;20185;-71
2023/01/01 01:41:19;;;;;;;38.47;24.10;;;;;;;11.78;98.52;97028.66;4974659;28;20202;-71
2023/01/01 01:43:51;;;;;;;79.27;35.73;;;;;;;11.73;98.79;97016.22;4975113;28;20188;-71
2023/01/01 01:46:23;;;;;;;92.73;41.40;;;;;;;11.66;99.20;97018.94;4974849;28;20193;-71
2023/01/01 01:48:51;;;;;;;54.47;26.10;;;;;;;11.66;99.46;97015.50;4974763;28;20169;-71
2023/01/01 01:51:21;;;;;;;27.27;16.90;;;;;;;11.57;99.92;97022.91;4956718;28;20192;-71
2023/01/01 01:53:53;;;;;;;16.30;13.13;;;;;;;11.61;99.57;97028.50;4974752;28;20192;-71
2023/01/01 01:56:26;;;;;;;15.67;12.70;;;;;;;11.60;99.76;97025.09;4974792;28;20360;-71
2023/01/01 01:58:52;;;;;;;18.23;12.00;;;;;;;11.61;99.47;97025.88;4974293;28;20210;-71
2023/01/01 02:01:17;;;;;;;15.67;12.30;;;;;;;11.66;99.39;97024.19;4972639;28;20193;-71
2023/01/01 02:03:54;;;;;;;14.27;11.23;;;;;;;11.63;99.14;97027.28;4970087;28;20267;-71
2023/01/01 02:06:20;;;;;;;13.27;11.77;;;;;;;11.68;99.05;97018.72;4957191;28;20203;-71
2023/01/01 02:08:47;;;;;;;13.30;11.53;;;;;;;11.68;98.88;97021.34;4974197;28;20207;-71
2023/01/01 02:11:13;;;;;;;16.53;15.03;;;;;;;11.83;97.99;97028.78;4973979;28;20196;-71
2023/01/01 02:13:38;;;;;;;22.43;20.53;;;;;;;11.74;98.11;97027.53;4974497;28;20188;-71
2023/01/01 02:16:12;;;;;;;24.10;22.13;;;;;;;11.80;97.73;97019.53;4974244;28;20204;-71
2023/01/01 02:18:54;;;;;;;20.63;18.90;;;;;;;11.90;97.08;97030.28;4974346;28;20200;-71
2023/01/01 02:21:24;;;;;;;15.73;14.20;;;;;;;11.92;96.80;97032.69;4974022;28;20184;-71
2023/01/01 02:24:20;;;;;;;11.70;10.57;;;;;;;11.99;96.21;97028.09;4973484;28;20185;-71
2023/01/01 02:27:17;;;;;;;12.57;11.27;;;;;;;11.99;96.21;97028.88;4972366;28;20209;-71
2023/01/01 02:29:57;;;;;;;11.73;10.53;;;;;;;11.98;96.09;97037.78;4958897;28;20220;-71
2023/01/01 02:32:33;;;;;;;11.33;10.00;;;;;;;12.08;95.65;97039.88;4974366;28;20276;-71
2023/01/01 02:35:33;;;;;;;13.23;11.80;;;;;;;12.00;96.08;97033.13;4974414;28;20293;-71
2023/01/01 02:37:51;;;;;;;16.83;11.23;;;;;;;12.02;95.88;97040.78;4972991;28;20184;-71
2023/01/01 02:40:20;;;;;;;13.50;11.87;;;;;;;12.03;95.54;97027.44;4973799;28;20188;-71
2023/01/01 02:42:47;;;;;;;14.77;12.27;;;;;;;11.99;95.74;97030.72;4970260;28;20236;-71
2023/01/01 02:45:12;;;;;;;12.87;11.57;;;;;;;12.00;95.78;97030.50;4973603;28;20251;-71
2023/01/01 02:47:38;;;;;;;14.53;11.10;;;;;;;12.03;95.19;97031.88;4974222;28;20497;-72
2023/01/01 02:50:22;;;;;;;12.40;11.20;;;;;;;12.10;95.58;97029.91;4973956;28;20587;-70
2023/01/01 02:52:48;;;;;;;12.30;11.17;;;;;;;12.08;94.71;97032.78;4957108;28;20559;-71
2023/01/01 02:55:22;;;;;;;13.87;12.57;;;;;;;12.06;94.59;97032.22;4973329;28;20228;-71
2023/01/01 03:00:17;;;;;;;12.23;11.03;;;;;;;12.07;94.47;97038.28;4959190;28;20651;-71
2023/01/01 03:00:50;;;;;;;13.23;12.03;;;;;;;12.14;94.08;97038.97;4972831;28;20200;-71
2023/01/01 03:03:21;;;;;;;11.43;10.37;;;;;;;12.18;93.61;97041.91;4971055;28;20221;-71
2023/01/01 03:09:00;;;;;;;12.17;11.17;;;;;;;12.13;93.51;97049.69;4973652;28;20208;-71
2023/01/01 03:11:36;;;;;;;15.13;9.87;;;;;;;12.12;93.95;97042.81;4973549;28;20193;-71
2023/01/01 03:14:18;;;;;;;11.07;10.07;;;;;;;12.12;93.59;97037.56;4973949;28;20267;-71
2023/01/01 03:16:53;;;;;;;12.93;11.67;;;;;;;12.07;94.19;97033.81;4973689;28;20224;-72
2023/01/01 03:19:25;;;;;;;11.43;10.33;;;;;;;12.08;94.20;97034.63;4973390;28;20204;-71
2023/01/01 03:22:14;;;;;;;11.67;10.47;;;;;;;12.04;94.25;97039.50;4957857;28;20185;-71
2023/01/01 03:24:46;;;;;;;12.37;11.03;;;;;;;12.07;94.16;97048.78;4971691;28;20189;-71
2023/01/01 03:27:30;;;;;;;11.07;10.17;;;;;;;12.06;94.17;97050.59;4973456;28;21022;-71
2023/01/01 03:30:00;;;;;;;11.63;10.63;;;;;;;12.03;94.65;97055.53;4973268;28;20255;-71
2023/01/01 03:35:19;;;;;;;9.73;8.70;;;;;;;11.94;95.35;97064.75;4968564;28;20711;-71
2023/01/01 03:37:48;;;;;;;8.70;7.90;;;;;;;11.93;95.17;97073.66;4973046;28;20189;-71
2023/01/01 03:40:17;;;;;;;8.90;8.07;;;;;;;11.89;95.39;97075.94;4974076;28;20199;-71
2023/01/01 03:42:49;;;;;;;9.70;8.77;;;;;;;11.87;95.89;97077.22;4959472;28;20180;-71
2023/01/01 03:45:17;;;;;;;16.60;15.30;;;;;;;11.83;95.87;97082.09;4976908;28;20201;-71
2023/01/01 03:47:43;;;;;;;21.40;19.77;;;;;;;11.80;96.26;97084.41;4976441;28;20185;-71
2023/01/01 03:50:10;;;;;;;22.20;20.73;;;;;;;11.81;96.28;97088.63;4977074;28;20184;-71
2023/01/01 03:52:44;;;;;;;24.57;23.07;;;;;;;11.78;96.35;97092.50;4976561;28;20181;-71
2023/01/01 03:55:29;;;;;;;23.67;21.77;;;;;;;11.71;96.71;97093.59;4976245;28;20226;-71
2023/01/01 03:58:05;;;;;;;16.60;15.30;;;;;;;11.76;96.71;97093.75;4976734;28;20216;-71
2023/01/01 04:00:39;;;;;;;14.63;13.40;;;;;;;11.69;97.31;97096.47;4976424;28;20184;-71
2023/01/01 04:03:31;;;;;;;12.87;11.67;;;;;;;11.63;97.50;97092.09;4976028;28;20199;-71
2023/01/01 04:05:57;;;;;;;11.30;10.40;;;;;;;11.61;97.78;97094.16;4975689;28;20224;-71
2023/01/01 04:08:22;;;;;;;11.43;10.30;;;;;;;11.62;97.39;97090.50;4976496;28;20276;-71
2023/01/01 04:10:56;;;;;;;11.13;9.53;;;;;;;11.64;97.66;97084.00;4976247;28;20652;-71
2023/01/01 04:13:22;;;;;;;8.83;8.10;;;;;;;11.60;97.59;97082.03;4976723;28;20276;-71
2023/01/01 04:15:48;;;;;;;9.43;8.43;;;;;;;11.63;97.68;97081.59;4976605;28;20196;-71
2023/01/01 04:18:13;;;;;;;8.47;7.67;;;;;;;11.59;98.00;97077.84;4976431;28;20248;-71
2023/01/01 04:20:39;;;;;;;8.43;7.73;;;;;;;11.57;97.80;97077.25;4976386;28;20188;-71
2023/01/01 04:23:04;;;;;;;8.67;7.80;;;;;;;11.54;98.22;97083.72;4976350;28;20196;-71
2023/01/01 04:25:30;;;;;;;9.90;7.60;;;;;;;11.57;98.01;97080.69;4963874;28;20220;-71
2023/01/01 04:27:57;;;;;;;8.47;7.67;;;;;;;11.60;97.76;97080.22;4976395;28;20611;-71
2023/01/01 04:30:22;;;;;;;16.30;7.83;;;;;;;11.56;97.82;97079.06;4976343;28;20220;-71
2023/01/01 04:32:48;;;;;;;8.53;7.57;;;;;;;11.55;97.63;97081.91;4976177;28;20188;-71
2023/01/01 04:35:14;;;;;;;9.00;8.23;;;;;;;11.49;98.31;97080.19;4975898;28;20200;-71
2023/01/01 04:37:41;;;;;;;9.87;8.97;;;;;;;11.50;98.53;97077.34;4976227;28;20606;-71
2023/01/01 04:40:09;;;;;;;9.10;8.17;;;;;;;11.48;98.69;97068.88;4975567;28;20599;-71
2023/01/01 04:42:34;;;;;;;11.83;8.70;;;;;;;11.46;98.73;97081.44;4976126;28;20189;-71
2023/01/01 04:45:00;;;;;;;8.47;7.67;;;;;;;11.45;98.49;97085.09;4975977;28;20204;-71
2023/01/01 04:47:28;;;;;;;7.87;7.17;;;;;;;11.45;98.84;97086.91;4975786;28;20188;-71
2023/01/01 04:49:54;;;;;;;8.57;7.43;;;;;;;11.42;98.90;97085.56;4976109;28;20181;-71
2023/01/01 04:52:19;;;;;;;8.07;7.30;;;;;;;11.40;99.12;97081.53;4975600;28;20215;-71
2023/01/01 04:54:45;;;;;;;8.10;6.80;;;;;;;11.34;99.27;97082.44;4975832;28;20224;-71
2023/01/01 04:57:10;;;;;;;8.57;7.63;;;;;;;11.38;99.02;97076.50;4974929;28;20280;-71
2023/01/01 04:59:35;;;;;;;7.57;6.87;;;;;;;11.38;98.93;97086.19;4975280;28;20657;-71
2023/01/01 05:02:01;;;;;;;7.43;6.73;;;;;;;11.37;98.91;97084.63;4973949;28;20278;-71
2023/01/01 05:04:26;;;;;;;7.53;6.87;;;;;;;11.43;98.86;97089.75;4975934;28;20193;-71
2023/01/01 05:06:51;;;;;;;7.83;7.17;;;;;;;11.53;98.15;97092.66;4975206;28;20208;-71
2023/01/01 05:09:17;;;;;;;7.67;6.97;;;;;;;11.53;97.87;97097.91;4975609;28;20189;-71
2023/01/01 05:11:42;;;;;;;7.53;6.77;;;;;;;11.46;97.96;97091.94;4975958;28;20272;-71
2023/01/01 05:14:07;;;;;;;7.17;6.47;;;;;;;11.55;97.85;97097.66;4975166;28;20220;-71
2023/01/01 05:16:36;;;;;;;8.87;8.17;;;;;;;11.56;97.53;97102.69;4975253;28;20200;-71
2023/01/01 05:19:03;;;;;;;8.70;7.90;;;;;;;11.52;97.50;97111.25;4975355;28;20248;-71
2023/01/01 05:21:31;;;;;;;9.00;8.30;;;;;;;11.53;97.71;97105.78;4975274;28;20184;-71
2023/01/01 05:23:59;;;;;;;12.03;11.03;;;;;;;11.51;97.94;97114.91;4973131;28;20361;-71
2023/01/01 05:26:28;;;;;;;12.17;11.27;;;;;;;11.53;97.73;97113.66;4975120;28;20251;-71
2023/01/01 05:28:55;;;;;;;13.60;12.50;;;;;;;11.50;97.49;97116.72;4975285;28;20185;-71
2023/01/01 05:31:22;;;;;;;15.00;13.80;;;;;;;11.49;97.75;97117.72;4975353;28;20285;-71
2023/01/01 05:33:48;;;;;;;14.73;13.63;;;;;;;11.53;97.62;97113.66;4958014;28;20185;-71
2023/01/01 05:36:16;;;;;;;15.40;14.40;;;;;;;11.44;97.98;97116.81;4974551;28;20193;-71
2023/01/01 05:38:42;;;;;;;17.37;16.27;;;;;;;11.49;97.73;97122.19;4974341;28;20196;-71
2023/01/01 05:41:09;;;;;;;15.30;14.30;;;;;;;11.51;97.84;97128.03;4975001;28;20493;-71
2023/01/01 05:43:36;;;;;;;13.67;12.70;;;;;;;11.41;98.17;97123.31;4974431;28;20696;-71
2023/01/01 05:46:04;;;;;;;11.07;10.23;;;;;;;11.43;98.31;97123.06;4957489;28;20243;-71
2023/01/01 05:48:31;;;;;;;9.13;8.30;;;;;;;11.40;98.32;97126.16;4957459;28;20239;-71
2023/01/01 05:51:02;;;;;;;9.03;8.33;;;;;;;11.40;98.45;97126.16;4974259;28;20367;-71
2023/01/01 05:53:29;;;;;;;7.60;6.90;;;;;;;11.35;98.50;97123.41;4974621;28;20271;-71
2023/01/01 05:55:54;;;;;;;7.43;6.80;;;;;;;11.28;98.49;97133.97;4957205;28;20232;-71
2023/01/01 05:58:20;;;;;;;8.03;7.43;;;;;;;11.21;99.80;97134.06;4974448;28;20256;-71
2023/01/01 06:00:45;;;;;;;7.83;7.20;;;;;;;11.21;99.53;97131.44;4973757;28;20260;-71
2023/01/01 06:03:11;;;;;;;7.80;6.93;;;;;;;11.16;99.70;97135.75;4973998;28;20189;-71
2023/01/01 06:05:36;;;;;;;7.83;7.13;;;;;;;11.15;99.92;97134.13;4973178;28;20207;-71
2023/01/01 06:08:01;;;;;;;8.43;7.63;;;;;;;11.13;100.00;97134.38;4974492;28;20216;-71
2023/01/01 06:10:27;;;;;;;8.93;8.13;;;;;;;11.04;100.00;97129.63;4974536;28;20307;-71
2023/01/01 06:12:57;;;;;;;7.50;6.73;;;;;;;11.01;100.00;97125.66;4974390;28;20271;-71
2023/01/01 06:15:22;;;;;;;7.53;6.93;;;;;;;11.01;100.00;97135.34;4974253;28;20181;-71
2023/01/01 06:17:48;;;;;;;9.70;8.80;;;;;;;10.96;100.00;97143.88;4973689;28;20707;-71
2023/01/01 06:20:13;;;;;;;9.17;7.20;;;;;;;10.90;100.00;97136.06;4956759;28;20176;-71
2023/01/01 06:22:38;;;;;;;6.97;6.23;;;;;;;10.89;100.00;97143.13;4973481;28;20543;-71
2023/01/01 06:25:04;;;;;;;6.47;5.87;;;;;;;10.84;100.00;97141.19;4972892;28;20675;-71
2023/01/01 06:27:29;;;;;;;7.70;6.93;;;;;;;10.83;100.00;97136.94;4973802;28;20204;-71
2023/01/01 06:29:56;;;;;;;9.00;7.70;;;;;;;10.86;100.00;97143.59;4973447;28;20176;-71
2023/01/01 06:32:21;;;;;;;7.73;7.13;;;;;;;10.80;100.00;97153.13;4974158;28;20192;-71
2023/01/01 06:34:47;;;;;;;8.23;6.87;;;;;;;10.79;100.00;97146.28;4974319;28;20317;-71
2023/01/01 06:37:12;;;;;;;6.40;5.90;;;;;;;10.84;100.00;97149.03;4973837;28;20185;-71
2023/01/01 06:39:37;;;;;;;6.73;6.00;;;;;;;10.90;100.00;97141.31;4974118;28;20192;-71
2023/01/01 06:42:04;;;;;;;6.23;5.73;;;;;;;10.82;100.00;97147.66;4973831;28;20196;-71
2023/01/01 06:44:29;;;;;;;6.90;6.40;;;;;;;10.84;100.00;97148.25;4966914;28;20196;-71
2023/01/01 06:46:54;;;;;;;6.90;6.30;;;;;;;10.79;100.00;97155.97;4973514;28;20208;-71
2023/01/01 06:49:20;;;;;;;7.73;7.13;;;;;;;10.87;100.00;97158.28;4973597;28;20196;-71
2023/01/01 06:51:45;;;;;;;7.80;7.10;;;;;;;10.90;99.90;97147.38;4973819;28;20191;-71
2023/01/01 06:54:10;;;;;;;7.87;7.27;;;;;;;10.91;99.29;97156.84;4973870;28;20200;-71
2023/01/01 06:56:36;;;;;;;7.90;7.27;;;;;;;10.88;98.89;97152.03;4973980;28;20264;-71
2023/01/01 06:59:02;;;;;;;7.23;6.53;;;;;;;10.90;98.99;97159.69;4973436;28;20184;-71
2023/01/01 07:01:30;;;;;;;6.17;5.73;;;;;;;10.95;98.40;97154.56;4972848;28;20188;-71
2023/01/01 07:04:04;;;;;;;6.17;5.60;;;;;;;10.97;98.00;97155.16;4973248;28;20189;-71
2023/01/01 07:06:30;;;;;;;6.37;5.77;;;;;;;10.98;97.81;97156.78;4974003;28;20236;-71
2023/01/01 07:08:56;;;;;;;6.27;5.67;;;;;;;11.01;97.01;97154.50;4973689;28;20184;-71
2023/01/01 07:11:22;;;;;;;7.03;6.33;;;;;;;11.04;96.43;97148.00;4973850;28;20284;-71
2023/01/01 07:13:48;;;;;;;9.70;9.00;;;;;;;11.08;95.59;97154.44;4972653;28;20188;-71
2023/01/01 07:16:13;;;;;;;10.57;9.53;;;;;;;11.13;95.36;97154.56;4958402;28;20247;-71
2023/01/01 07:18:39;;;;;;;10.93;10.23;;;;;;;11.16;94.95;97162.78;4978016;28;20187;-71
2023/01/01 07:21:20;;;;;;;10.63;9.83;;;;;;;11.15;94.32;97163.81;4977338;28;20185;-71
2023/01/01 07:23:45;;;;;;;11.93;11.00;;;;;;;11.21;94.03;97167.38;4975501;28;20660;-71
2023/01/01 07:26:10;;;;;;;6.73;6.33;;;;;;;11.25;93.11;97165.94;4977563;28;20213;-71
2023/01/01 07:28:36;;;;;;;6.17;5.57;;;;;;;11.32;93.00;97168.44;4977095;28;20216;-71
2023/01/01 07:31:01;;;;;;;6.37;5.73;;;;;;;11.44;91.93;97166.66;4974439;28;20208;-70
2023/01/01 07:33:26;;;;;;;6.67;5.73;;;;;;;11.55;91.04;97165.91;4965576;28;20203;-70
2023/01/01 07:35:52;;;;;;;9.07;4.97;;;;;;;11.58;90.28;97161.03;4977390;28;20185;-70
2023/01/01 07:38:17;;;;;;;5.97;5.47;;;;;;;11.62;89.83;97170.06;4978459;28;20199;-69
2023/01/01 07:40:43;;;;;;;7.63;7.10;;;;;;;11.68;89.52;97169.16;4977087;28;20181;-70
2023/01/01 07:43:08;;;;;;;7.03;6.53;;;;;;;11.72;89.46;97180.03;4959698;28;20184;-69
2023/01/01 07:45:34;;;;;;;6.77;6.33;;;;;;;11.61;89.76;97178.16;4976368;28;20256;-70
2023/01/01 07:48:00;;;;;;;6.67;6.17;;;;;;;11.66;89.66;97181.72;4976766;28;20203;-70
2023/01/01 07:50:29;;;;;;;7.47;6.87;;;;;;;11.58;90.46;97187.28;4976906;28;20679;-70
2023/01/01 07:52:55;;;;;;;7.00;6.30;;;;;;;11.48;91.67;97180.97;4977131;28;20211;-70
2023/01/01 07:55:21;;;;;;;6.43;6.03;;;;;;;11.48;92.41;97181.75;4977151;28;20688;-70
2023/01/01 07:57:48;;;;;;;8.17;5.87;;;;;;;11.42;93.25;97187.91;4976740;28;20185;-70
2023/01/01 08:00:16;;;;;;;6.10;5.57;;;;;;;11.48;92.89;97200.13;4976369;28;20192;-70
2023/01/01 08:02:42;;;;;;;5.83;5.43;;;;;;;11.42;93.15;97203.66;4975862;28;20193;-70
2023/01/01 08:05:08;;;;;;;6.00;5.50;;;;;;;11.41;93.61;97214.38;4976206;28;20201;-71
2023/01/01 08:07:33;;;;;;;6.87;6.37;;;;;;;11.37;93.27;97213.22;4959368;28;20550;-71
2023/01/01 08:09:58;;;;;;;5.80;5.30;;;;;;;11.42;93.25;97223.84;4970631;28;20192;-71
2023/01/01 08:12:24;;;;;;;5.93;5.33;;;;;;;11.36;93.68;97220.28;4976386;28;20189;-71
2023/01/01 08:14:49;;;;;;;7.50;5.67;;;;;;;11.16;95.19;97230.19;4976522;28;20216;-71
2023/01/01 08:17:15;;;;;;;5.40;4.90;;;;;;;11.16;95.46;97228.38;4976185;28;20664;-71
2023/01/01 08:19:40;;;;;;;7.10;5.37;;;;;;;11.18;95.13;97231.59;4976435;28;20551;-70
2023/01/01 08:22:06;;;;;;;5.93;5.40;;;;;;;11.21;94.92;97235.59;4974224;28;20608;-71
2023/01/01 08:24:31;;;;;;;5.50;5.07;;;;;;;11.18;95.93;97241.28;4976984;28;20631;-70
2023/01/01 08:26:56;;;;;;;6.60;5.17;;;;;;;11.25;95.53;97228.91;4975601;28;20551;-71
2023/01/01 08:29:22;;;;;;;6.67;6.17;;;;;;;11.16;95.34;97238.06;4976188;28;20201;-70
2023/01/01 08:31:47;;;;;;;6.90;6.37;;;;;;;11.15;95.78;97234.63;4976278;28;20208;-70
2023/01/01 08:34:13;;;;;;;7.03;6.30;;;;;;;11.19;95.58;97232.41;4975907;28;20279;-70
2023/01/01 08:36:41;;;;;;;7.47;6.40;;;;;;;11.20;95.24;97234.00;4975905;28;20335;-71
2023/01/01 08:39:07;;;;;;;7.10;6.43;;;;;;;11.20;95.46;97237.41;4973309;28;20559;-71
2023/01/01 08:41:32;;;;;;;7.03;6.33;;;;;;;11.27;94.80;97240.75;4975931;28;20265;-71
2023/01/01 08:43:58;;;;;;;7.87;6.10;;;;;;;11.29;95.07;97234.50;4976194;28;20271;-70
2023/01/01 08:46:23;;;;;;;6.87;5.73;;;;;;;11.40;94.49;97231.13;4975216;28;20603;-72
2023/01/01 08:48:48;;;;;;;6.23;5.73;;;;;;;11.53;93.41;97230.97;4972816;28;20535;-74
2023/01/01 08:51:14;;;;;;;7.33;6.73;;;;;;;11.58;93.16;97236.38;4963924;28;20189;-73
2023/01/01 08:53:39;;;;;;;7.50;5.97;;;;;;;11.69;91.83;97240.88;4956786;29;20181;-71
2023/01/01 08:56:08;;;;;;;10.20;9.30;;;;;;;12.82;100.00;97244.19;4969991;28;20275;-72
2023/01/01 08:58:38;;;;;;;12.43;11.57;;;;;;;13.13;99.41;97250.19;4982825;28;20193;-74
2023/01/01 09:01:04;;;;;;;9.43;8.77;;;;;;;12.59;89.48;97244.22;4974443;28;20214;-72
2023/01/01 09:03:29;;;;;;;9.63;8.97;;;;;;;12.60;87.72;97245.00;4975897;28;20189;-71
2023/01/01 09:05:55;;;;;;;8.70;7.97;;;;;;;12.53;87.23;97244.31;4958477;28;20268;-71
2023/01/01 09:08:21;;;;;;;11.20;10.43;;;;;;;12.30;88.10;97247.72;4958377;28;20647;-71
2023/01/01 09:10:47;;;;;;;11.87;10.97;;;;;;;12.45;87.41;97250.69;4975716;28;20229;-71
2023/01/01 09:13:15;;;;;;;13.50;12.47;;;;;;;12.46;86.93;97250.50;4975604;28;20188;-71
2023/01/01 09:15:44;;;;;;;15.97;14.93;;;;;;;12.43;87.39;97253.56;4975447;28;20188;-71
2023/01/01 09:18:10;;;;;;;24.67;22.97;;;;;;;12.39;87.45;97239.25;4975629;28;20212;-71
2023/01/01 09:20:36;;;;;;;27.33;25.67;;;;;;;12.44;87.30;97244.66;4975512;28;20185;-71
2023/01/01 09:23:02;;;;;;;23.73;22.23;;;;;;;12.37;87.86;97238.69;4960907;28;20201;-71
2023/01/01 09:25:27;;;;;;;12.43;11.67;;;;;;;12.37;87.49;97238.69;4955700;29;20213;-72
2023/01/01 09:27:57;;;;;;;7.00;6.33;;;;;;;12.26;88.78;97249.19;4955693;29;20546;-71
2023/01/01 09:30:23;;;;;;;7.13;6.43;;;;;;;12.24;88.92;97253.88;4955532;29;20561;-71
2023/01/01 09:32:48;;;;;;;7.07;6.47;;;;;;;12.19;88.80;97259.81;4955975;29;20209;-71
2023/01/01 09:35:14;;;;;;;7.50;6.90;;;;;;;12.32;88.55;97254.34;4955560;29;20177;-69
2023/01/01 09:37:39;;;;;;;8.47;7.50;;;;;;;12.33;87.88;97258.56;4961003;28;20180;-71
2023/01/01 09:40:05;;;;;;;20.23;18.90;;;;;;;12.45;87.37;97250.69;4974992;28;20264;-71
2023/01/01 09:42:38;;;;;;;33.17;31.30;;;;;;;12.48;87.02;97256.31;4957718;28;20272;-71
2023/01/01 09:45:22;;;;;;;42.03;39.50;;;;;;;12.52;87.04;97253.22;4938519;29;20645;-71
2023/01/01 09:47:56;;;;;;;36.23;34.07;;;;;;;12.62;86.81;97253.47;4968387;28;20329;-71
2023/01/01 09:50:48;;;;;;;42.17;39.73;;;;;;;12.59;86.50;97261.81;4974972;28;20172;-71
2023/01/01 09:53:27;;;;;;;39.20;36.63;;;;;;;12.55;86.58;97263.28;4971339;28;20251;-71
2023/01/01 09:55:59;;;;;;;38.70;36.47;;;;;;;12.66;85.94;97271.19;4974359;28;20228;-71
2023/01/01 09:58:30;;;;;;;22.53;21.20;;;;;;;12.91;83.68;97270.97;4975046;28;20259;-71
2023/01/01 10:01:02;;;;;;;19.30;18.20;;;;;;;12.98;82.39;97268.25;4973436;28;20196;-71
2023/01/01 10:03:30;;;;;;;24.33;22.97;;;;;;;13.07;81.64;97269.50;4955473;29;20249;-72
2023/01/01 10:06:22;;;;;;;28.30;26.57;;;;;;;13.21;80.92;97257.69;4955165;29;20228;-71
2023/01/01 10:09:20;;;;;;;17.90;16.83;;;;;;;13.29;80.55;97260.78;4954991;29;20292;-71
2023/01/01 10:12:05;;;;;;;14.30;13.40;;;;;;;13.29;80.82;97260.78;4955451;29;20283;-71
2023/01/01 10:15:15;;;;;;;12.63;11.73;;;;;;;13.45;79.89;97272.44;4976669;28;20181;-71
2023/01/01 10:17:45;;;;;;;12.40;11.47;;;;;;;13.49;80.16;97263.03;4949956;28;20525;-71
2023/01/01 10:20:35;;;;;;;11.83;10.93;;;;;;;13.68;80.39;97263.69;4974782;28;20184;-71
2023/01/01 10:23:17;;;;;;;24.17;22.73;;;;;;;13.68;80.05;97256.56;4973135;28;20193;-71
2023/01/01 10:25:44;;;;;;;28.03;26.10;;;;;;;13.73;79.69;97261.13;4974345;28;20240;-71
2023/01/01 10:28:26;;;;;;;41.20;38.80;;;;;;;13.61;79.54;97252.47;4956281;28;20180;-71
2023/01/01 10:31:09;;;;;;;44.90;42.37;;;;;;;13.68;79.52;97259.22;4968839;28;20196;-72
2023/01/01 10:33:35;;;;;;;56.30;53.10;;;;;;;13.69;79.24;97260.00;4955896;28;20561;-71
2023/01/01 10:36:00;;;;;;;58.27;54.87;;;;;;;13.67;79.22;97259.44;4974438;28;20216;-71
2023/01/01 10:38:26;;;;;;;50.10;47.20;;;;;;;13.75;78.83;97256.44;4974697;28;20259;-72
2023/01/01 10:40:57;;;;;;;33.57;31.57;;;;;;;13.82;78.68;97262.34;4974155;28;20196;-72
2023/01/01 10:43:22;;;;;;;29.50;27.80;;;;;;;13.85;78.26;97259.25;4974104;28;20654;-71
2023/01/01 10:45:53;;;;;;;28.30;26.47;;;;;;;13.85;78.65;97251.34;4973845;28;20196;-70
2023/01/01 10:48:21;;;;;;;17.90;16.77;;;;;;;13.93;78.25;97252.81;4973435;28;20189;-73
2023/01/01 10:50:51;;;;;;;40.33;38.03;;;;;;;13.87;77.69;97254.56;4973535;28;20173;-71
2023/01/01 10:53:23;;;;;;;60.97;57.67;;;;;;;13.95;76.88;97251.53;4973611;28;20176;-72
2023/01/01 10:55:56;;;;;;;56.50;53.33;;;;;;;14.05;77.23;97245.63;4972998;28;20232;-73
2023/01/01 10:58:44;;;;;;;47.13;44.27;;;;;;;14.22;76.17;97245.66;4973075;28;20204;-73
2023/01/01 11:01:22;;;;;;;33.30;31.17;;;;;;;14.36;75.43;97249.63;4972256;28;20185;-72
2023/01/01 11:04:02;;;;;;;32.47;30.47;;;;;;;14.33;75.76;97245.59;4972919;28;20643;-71
2023/01/01 11:06:33;;;;;;;29.43;27.20;;;;;;;14.42;75.57;97252.13;4973479;28;20295;-70
2023/01/01 11:09:05;;;;;;;38.40;35.97;;;;;;;14.44;75.47;97257.94;4973411;28;20188;-72
2023/01/01 11:11:42;;;;;;;30.53;28.60;;;;;;;14.53;75.16;97250.44;4973174;28;20635;-72
2023/01/01 11:14:24;;;;;;;24.37;22.63;;;;;;;14.47;75.50;97240.84;4972619;28;20177;-71
2023/01/01 11:16:50;;;;;;;28.63;26.57;;;;;;;14.44;76.01;97233.41;4973764;28;20173;-70
2023/01/01 11:19:42;;;;;;;25.77;24.13;;;;;;;14.39;76.41;97244.69;4973165;28;20177;-71
2023/01/01 11:22:33;;;;;;;28.53;26.37;;;;;;;14.57;75.28;97233.91;4965082;28;20208;-71
2023/01/01 11:25:04;;;;;;;26.70;25.00;;;;;;;14.52;75.82;97231.19;4973850;28;20247;-71
2023/01/01 11:27:29;;;;;;;20.77;19.40;;;;;;;14.58;75.89;97232.06;4973415;28;20185;-71
2023/01/01 11:30:26;;;;;;;32.97;30.70;;;;;;;14.60;76.07;97224.69;4972574;28;20694;-71
2023/01/01 11:33:02;;;;;;;50.57;47.60;;;;;;;14.61;75.74;97228.13;4953720;29;20256;-72
2023/01/01 11:35:37;;;;;;;95.60;90.03;;;;;;;14.77;74.34;97220.19;4954474;29;20612;-71
2023/01/01 11:38:03;;;;;;;142.30;134.67;;;;;;;14.82;74.27;97212.34;4954527;29;20172;-72